Time;durP1;ratioP1;P1;durP2;ratioP2;P2;SDS_P1;SDS_P2;PMS_P1;PMS_P2;Temp;Humidity;BMP_temperature;BMP_pressure;BME280_temperature;BME280_humidity;BME280_pressure;Samples;Min_cycle;Max_cycle;Signal;HPM_P1;HPM_P2
2020/12/06 00:00:48;;;;;;;;;;;4.30;82.20;;;;;;5052946;28;20504;-84
2020/12/06 00:03:13;;;;;;;16.93;10.37;;;4.30;82.20;;;;;;5052801;28;19940;-84
2020/12/06 00:05:39;;;;;;;18.20;10.77;;;4.20;82.80;;;;;;5057332;28;20393;-86
2020/12/06 00:08:06;;;;;;;18.50;11.00;;;4.20;82.50;;;;;;5039341;28;20385;-84
2020/12/06 00:10:31;;;;;;;18.33;11.70;;;4.20;82.40;;;;;;5058351;28;20056;-87
2020/12/06 00:12:57;;;;;;;19.63;11.43;;;4.20;82.60;;;;;;5057952;28;20429;-84
2020/12/06 00:15:23;;;;;;;21.10;11.30;;;4.20;82.80;;;;;;5058175;28;20508;-85
2020/12/06 00:17:48;;;;;;;18.70;11.20;;;4.20;82.60;;;;;;5058533;28;20512;-85
2020/12/06 00:20:14;;;;;;;17.20;11.33;;;4.20;82.70;;;;;;5057115;28;20029;-85
2020/12/06 00:22:40;;;;;;;16.93;11.00;;;4.20;82.50;;;;;;5056739;28;20052;-84
2020/12/06 00:25:06;;;;;;;18.00;10.73;;;4.20;82.40;;;;;;5057212;28;20115;-84
2020/12/06 00:27:35;;;;;;;17.30;11.00;;;4.20;82.60;;;;;;5055289;28;20032;-85
2020/12/06 00:30:01;;;;;;;18.23;11.45;;;4.10;82.20;;;;;;5052465;28;20032;-86
2020/12/06 00:32:27;;;;;;;18.00;10.37;;;4.10;82.50;;;;;;5051055;28;20041;-86
2020/12/06 00:34:52;;;;;;;19.57;11.57;;;4.10;82.70;;;;;;5051635;28;20021;-85
2020/12/06 00:37:18;;;;;;;18.70;11.83;;;4.10;82.80;;;;;;5052957;28;20029;-85
2020/12/06 00:39:44;;;;;;;21.10;12.00;;;4.10;82.70;;;;;;5051178;28;20029;-85
2020/12/06 00:42:10;;;;;;;19.97;11.60;;;4.10;82.70;;;;;;5051427;28;20029;-85
2020/12/06 00:44:35;;;;;;;18.97;12.17;;;4.10;82.60;;;;;;5051699;28;20029;-86
2020/12/06 00:47:01;;;;;;;19.97;11.83;;;4.10;82.50;;;;;;5052157;28;20025;-86
2020/12/06 00:49:26;;;;;;;19.17;11.27;;;4.10;82.60;;;;;;5051007;28;20056;-86
2020/12/06 00:51:52;;;;;;;20.27;11.80;;;4.10;82.90;;;;;;5051196;28;20025;-85
2020/12/06 00:54:18;;;;;;;19.00;10.93;;;4.10;83.00;;;;;;5051082;28;20366;-85
2020/12/06 00:56:43;;;;;;;18.17;11.20;;;4.10;82.90;;;;;;5051185;28;20107;-85
2020/12/06 00:59:09;;;;;;;17.97;11.43;;;4.10;82.90;;;;;;5052033;28;20074;-86
2020/12/06 01:01:39;;;;;;;18.53;11.53;;;4.10;83.10;;;;;;5055650;28;20075;-86
2020/12/06 01:04:04;;;;;;;19.63;10.70;;;4.10;82.90;;;;;;5054194;28;20561;-86
2020/12/06 01:06:30;;;;;;;20.50;10.67;;;4.10;83.10;;;;;;5054495;28;20053;-86
2020/12/06 01:08:56;;;;;;;18.67;10.90;;;4.10;83.00;;;;;;5050844;28;20024;-84
2020/12/06 01:11:21;;;;;;;18.77;10.97;;;4.10;83.20;;;;;;5050998;28;20596;-84
2020/12/06 01:13:47;;;;;;;19.33;11.07;;;4.10;83.00;;;;;;5051519;28;20021;-84
2020/12/06 01:16:15;;;;;;;19.53;12.27;;;4.10;82.80;;;;;;5051540;28;20128;-84
2020/12/06 01:18:41;;;;;;;18.27;11.38;;;4.10;83.00;;;;;;5052372;28;20025;-84
2020/12/06 01:21:10;;;;;;;20.20;12.23;;;4.10;82.70;;;;;;5051763;28;20037;-84
2020/12/06 01:23:35;;;;;;;19.67;12.30;;;4.20;83.10;;;;;;5051060;28;20025;-84
2020/12/06 01:26:01;;;;;;;23.93;12.80;;;4.20;82.80;;;;;;5051025;28;20473;-84
2020/12/06 01:28:27;;;;;;;22.43;12.73;;;4.20;82.60;;;;;;5052245;28;20078;-84
2020/12/06 01:30:52;;;;;;;23.47;13.20;;;4.20;82.40;;;;;;5050450;28;20520;-84
2020/12/06 01:33:18;;;;;;;22.57;13.50;;;4.20;82.60;;;;;;5052128;28;20032;-84
2020/12/06 01:35:43;;;;;;;24.13;13.80;;;4.20;82.50;;;;;;5051040;28;20389;-85
2020/12/06 01:38:09;;;;;;;19.67;12.73;;;4.20;82.40;;;;;;5052158;28;20103;-85
2020/12/06 01:40:42;;;;;;;23.03;13.17;;;4.20;82.50;;;;;;5051737;28;20392;-84
2020/12/06 01:43:10;;;;;;;21.00;12.47;;;4.20;82.40;;;;;;5051841;28;20024;-84
2020/12/06 01:45:39;;;;;;;20.60;12.30;;;4.20;82.40;;;;;;5051045;28;20025;-84
2020/12/06 01:48:07;;;;;;;19.10;11.70;;;4.20;82.30;;;;;;5050343;28;20057;-84
2020/12/06 01:50:34;;;;;;;21.83;12.70;;;4.20;82.40;;;;;;5050267;28;20914;-84
2020/12/06 01:53:01;;;;;;;20.60;11.93;;;4.20;82.20;;;;;;5038965;28;20026;-85
2020/12/06 01:55:27;;;;;;;19.33;12.23;;;4.20;83.30;;;;;;5057559;28;20100;-84
2020/12/06 01:58:09;;;;;;;18.97;12.10;;;4.20;82.20;;;;;;5055137;28;20110;-84
2020/12/06 02:00:36;;;;;;;19.53;12.07;;;4.20;82.40;;;;;;5057981;28;20025;-84
2020/12/06 02:03:03;;;;;;;21.00;11.90;;;4.20;82.50;;;;;;5055557;28;20063;-84
2020/12/06 02:05:30;;;;;;;19.43;10.70;;;4.20;82.40;;;;;;5055770;28;20465;-84
2020/12/06 02:07:59;;;;;;;18.50;11.43;;;4.20;82.10;;;;;;5054740;28;20029;-84
2020/12/06 02:10:26;;;;;;;19.10;11.57;;;4.20;82.00;;;;;;5053995;28;20021;-84
2020/12/06 02:12:53;;;;;;;18.63;10.97;;;4.20;81.80;;;;;;5055491;28;20060;-84
2020/12/06 02:15:19;;;;;;;16.93;10.77;;;4.20;81.50;;;;;;5059165;28;20033;-85
2020/12/06 02:17:44;;;;;;;17.50;10.70;;;4.30;81.30;;;;;;5060450;28;20099;-84
2020/12/06 02:20:10;;;;;;;18.97;11.27;;;4.30;81.30;;;;;;5061067;28;20502;-84
2020/12/06 02:22:35;;;;;;;20.03;11.17;;;4.30;81.40;;;;;;5059245;28;20036;-85
2020/12/06 02:25:01;;;;;;;17.70;10.97;;;4.30;81.30;;;;;;5058841;28;20040;-87
2020/12/06 02:27:27;;;;;;;18.23;10.73;;;4.30;81.50;;;;;;5058668;28;20401;-86
2020/12/06 02:29:52;;;;;;;18.93;10.60;;;4.20;81.50;;;;;;5060026;28;20033;-84
2020/12/06 02:32:18;;;;;;;17.27;11.07;;;4.30;81.40;;;;;;5058393;28;20033;-84
2020/12/06 02:34:44;;;;;;;17.57;10.70;;;4.30;81.30;;;;;;5058365;28;20025;-84
2020/12/06 02:37:09;;;;;;;17.50;10.80;;;4.20;81.90;;;;;;5056537;28;20034;-84
2020/12/06 02:39:35;;;;;;;16.83;10.57;;;4.20;82.20;;;;;;5054639;28;20083;-84
2020/12/06 02:42:01;;;;;;;16.00;9.90;;;4.10;83.00;;;;;;5055079;28;20032;-85
2020/12/06 02:44:26;;;;;;;16.30;9.90;;;4.20;82.30;;;;;;5057332;28;20035;-84
2020/12/06 02:46:52;;;;;;;16.67;9.90;;;4.20;82.50;;;;;;5041948;28;20174;-84
2020/12/06 02:49:17;;;;;;;14.83;9.47;;;4.20;82.50;;;;;;5058653;28;20530;-85
2020/12/06 02:51:43;;;;;;;15.43;8.93;;;4.30;81.70;;;;;;5057009;28;20171;-86
2020/12/06 02:54:09;;;;;;;15.13;9.43;;;4.30;81.50;;;;;;5053609;28;20087;-85
2020/12/06 02:56:34;;;;;;;13.87;9.33;;;4.30;81.50;;;;;;5054873;28;20078;-84
2020/12/06 02:59:00;;;;;;;15.83;10.03;;;4.30;81.30;;;;;;5052931;28;20065;-84
2020/12/06 03:01:30;;;;;;;15.60;9.97;;;4.40;81.30;;;;;;5056662;28;20033;-86
2020/12/06 03:03:56;;;;;;;17.57;9.77;;;4.40;81.30;;;;;;5057532;28;20033;-85
2020/12/06 03:06:22;;;;;;;16.53;9.47;;;4.40;81.20;;;;;;5056270;28;20029;-85
2020/12/06 03:08:48;;;;;;;15.77;9.40;;;4.40;81.10;;;;;;5053977;28;20091;-84
2020/12/06 03:11:13;;;;;;;16.10;9.03;;;4.40;80.80;;;;;;5052908;28;20033;-84
2020/12/06 03:13:39;;;;;;;14.70;9.43;;;4.40;81.00;;;;;;5054679;28;20442;-84
2020/12/06 03:16:05;;;;;;;15.87;9.33;;;4.40;80.90;;;;;;5036706;28;20056;-84
2020/12/06 03:18:31;;;;;;;17.30;10.27;;;4.40;81.00;;;;;;5036731;28;20036;-84
2020/12/06 03:20:57;;;;;;;15.63;9.93;;;4.40;81.30;;;;;;5052674;28;20021;-84
2020/12/06 03:23:22;;;;;;;16.93;10.30;;;4.30;81.20;;;;;;5053185;28;20047;-84
2020/12/06 03:25:48;;;;;;;18.53;10.77;;;4.30;81.80;;;;;;5054280;28;20397;-84
2020/12/06 03:28:14;;;;;;;16.93;10.73;;;4.30;81.50;;;;;;5054375;28;20513;-84
2020/12/06 03:30:39;;;;;;;19.00;11.40;;;4.30;81.70;;;;;;5052517;28;20390;-84
2020/12/06 03:33:05;;;;;;;20.23;12.03;;;4.30;81.60;;;;;;5052851;28;20119;-84
2020/12/06 03:35:30;;;;;;;19.53;11.70;;;4.20;81.90;;;;;;5052852;28;20032;-84
2020/12/06 03:37:56;;;;;;;20.60;12.57;;;4.20;82.30;;;;;;5052807;28;20501;-84
2020/12/06 03:40:22;;;;;;;22.07;12.03;;;4.10;82.40;;;;;;5053487;28;20017;-84
2020/12/06 03:42:50;;;;;;;20.50;12.03;;;4.20;82.80;;;;;;5053986;28;20374;-84
2020/12/06 03:45:16;;;;;;;21.23;12.97;;;4.10;82.40;;;;;;5053846;28;20025;-84
2020/12/06 03:47:41;;;;;;;21.73;12.97;;;4.10;82.50;;;;;;5052634;28;20515;-84
2020/12/06 03:50:07;;;;;;;23.20;12.90;;;4.10;82.80;;;;;;5052173;28;20539;-84
2020/12/06 03:52:32;;;;;;;22.13;12.80;;;4.10;82.60;;;;;;5052705;28;20044;-85
2020/12/06 03:54:58;;;;;;;21.07;12.70;;;4.20;83.00;;;;;;5054507;28;20049;-85
2020/12/06 03:57:24;;;;;;;22.53;12.73;;;4.10;82.60;;;;;;5054013;28;20103;-85
2020/12/06 03:59:49;;;;;;;21.70;11.87;;;4.10;82.70;;;;;;5054832;28;20032;-86
2020/12/06 04:02:15;;;;;;;21.57;12.67;;;4.10;82.50;;;;;;5051528;28;20385;-84
2020/12/06 04:04:41;;;;;;;21.40;12.00;;;4.10;82.70;;;;;;5051606;28;20032;-85
2020/12/06 04:07:07;;;;;;;21.83;12.67;;;4.10;82.80;;;;;;5053733;28;20559;-85
2020/12/06 04:09:32;;;;;;;19.53;11.57;;;4.10;82.50;;;;;;5053146;28;20059;-86
2020/12/06 04:11:58;;;;;;;23.43;12.13;;;4.10;82.70;;;;;;5052372;28;20115;-85
2020/12/06 04:14:24;;;;;;;20.87;12.13;;;4.10;82.70;;;;;;5054981;28;20021;-84
2020/12/06 04:16:49;;;;;;;20.10;11.60;;;4.10;82.90;;;;;;5056588;28;20029;-87
2020/12/06 04:19:15;;;;;;;21.40;12.10;;;4.10;82.60;;;;;;5055397;28;20106;-84
2020/12/06 04:21:40;;;;;;;19.97;12.27;;;4.10;82.90;;;;;;5055303;28;20044;-85
2020/12/06 04:24:06;;;;;;;21.97;12.27;;;4.10;82.90;;;;;;5055016;28;20027;-86
2020/12/06 04:26:32;;;;;;;20.67;11.87;;;4.10;82.80;;;;;;5056088;28;20029;-86
2020/12/06 04:28:57;;;;;;;23.60;12.90;;;4.10;82.90;;;;;;5054233;28;20033;-87
2020/12/06 04:31:24;;;;;;;24.17;13.20;;;4.00;82.80;;;;;;5053778;28;20024;-85
2020/12/06 04:33:49;;;;;;;22.23;12.30;;;4.00;83.10;;;;;;5052983;28;20289;-85
2020/12/06 04:36:15;;;;;;;22.70;13.37;;;4.00;83.00;;;;;;5051569;28;20028;-85
2020/12/06 04:38:41;;;;;;;21.50;12.27;;;4.00;83.10;;;;;;5052950;28;20382;-85
2020/12/06 04:41:06;;;;;;;24.63;12.93;;;4.00;83.30;;;;;;5050873;28;20031;-85
2020/12/06 04:43:34;;;;;;;22.53;12.90;;;4.00;83.30;;;;;;5052622;28;20028;-86
2020/12/06 04:46:00;;;;;;;22.60;13.33;;;4.00;84.00;;;;;;5052674;28;20037;-86
2020/12/06 04:48:50;;;;;;;24.70;14.07;;;4.00;83.10;;;;;;5051762;28;20477;-86
2020/12/06 04:51:16;;;;;;;27.23;14.53;;;4.00;83.50;;;;;;5051154;28;20098;-85
2020/12/06 04:54:01;;;;;;;23.93;13.90;;;4.00;83.50;;;;;;5053028;28;20322;-86
2020/12/06 04:56:28;;;;;;;24.73;14.33;;;3.90;83.40;;;;;;5052776;28;20036;-86
2020/12/06 04:58:59;;;;;;;25.80;14.60;;;3.90;83.40;;;;;;5034221;28;20032;-85
2020/12/06 05:01:32;;;;;;;25.80;14.43;;;4.00;83.40;;;;;;5051333;28;20025;-86
2020/12/06 05:04:03;;;;;;;23.20;13.83;;;4.00;83.30;;;;;;5052477;28;20029;-85
2020/12/06 05:06:29;;;;;;;25.63;14.77;;;4.00;83.30;;;;;;5052199;28;20036;-86
2020/12/06 05:08:57;;;;;;;26.37;15.20;;;4.00;83.10;;;;;;5050375;28;20021;-86
2020/12/06 05:11:23;;;;;;;24.33;13.80;;;4.00;83.00;;;;;;5050878;28;20269;-86
2020/12/06 05:13:48;;;;;;;26.50;14.90;;;3.90;83.10;;;;;;5052166;28;20025;-85
2020/12/06 05:16:15;;;;;;;25.57;13.97;;;3.90;83.80;;;;;;5050895;28;20063;-85
2020/12/06 05:18:40;;;;;;;25.97;15.30;;;4.00;84.10;;;;;;5050830;28;20474;-86
2020/12/06 05:21:06;;;;;;;25.27;14.93;;;3.90;83.60;;;;;;5050154;28;20086;-85
2020/12/06 05:23:31;;;;;;;26.20;14.83;;;4.00;83.70;;;;;;5052060;28;20033;-85
2020/12/06 05:25:58;;;;;;;25.37;14.30;;;4.00;84.50;;;;;;5051984;28;20033;-86
2020/12/06 05:28:24;;;;;;;23.17;14.17;;;4.00;83.20;;;;;;5051968;28;20033;-86
2020/12/06 05:30:50;;;;;;;24.83;14.07;;;4.00;83.10;;;;;;5050105;28;20021;-88
2020/12/06 05:33:18;;;;;;;26.50;16.03;;;3.90;83.80;;;;;;5112964;22;20044;-82
2020/12/06 05:35:44;;;;;;;26.77;15.00;;;4.00;84.00;;;;;;5094295;28;20024;-82
2020/12/06 05:38:13;;;;;;;26.20;14.83;;;3.90;84.00;;;;;;5094514;28;20021;-81
2020/12/06 05:40:45;;;;;;;27.13;15.00;;;3.90;84.40;;;;;;5093789;28;20024;-81
2020/12/06 05:43:12;;;;;;;23.50;14.60;;;3.90;84.40;;;;;;5075793;28;20024;-82
2020/12/06 05:45:38;;;;;;;25.53;14.97;;;3.90;84.40;;;;;;5094257;28;20012;-82
2020/12/06 05:48:07;;;;;;;22.10;13.63;;;3.90;84.50;;;;;;5094019;28;20031;-82
2020/12/06 05:50:34;;;;;;;24.20;13.67;;;3.90;84.20;;;;;;5093907;28;20388;-82
2020/12/06 05:53:01;;;;;;;26.20;14.50;;;4.00;84.00;;;;;;5094024;28;20016;-81
2020/12/06 05:55:28;;;;;;;23.27;13.60;;;3.90;84.00;;;;;;5094191;28;20024;-81
2020/12/06 05:57:54;;;;;;;25.70;14.47;;;4.00;84.10;;;;;;5075904;28;20021;-82
2020/12/06 06:00:20;;;;;;;23.47;13.37;;;3.90;84.20;;;;;;5093130;28;20043;-81
2020/12/06 06:02:50;;;;;;;23.83;13.27;;;3.90;84.30;;;;;;5093719;28;20035;-81
2020/12/06 06:05:17;;;;;;;;;;;4.00;84.40;;;;;;5094393;28;20023;-82
2020/12/06 06:07:46;;;;;;;24.13;12.93;;;4.00;84.20;;;;;;5094079;28;20379;-82
2020/12/06 06:10:14;;;;;;;;;;;3.90;84.40;;;;;;5093992;28;20111;-82
2020/12/06 06:12:46;;;;;;;22.97;12.67;;;4.00;84.30;;;;;;5093878;28;19908;-82
2020/12/06 06:15:13;;;;;;;22.80;13.03;;;4.00;84.40;;;;;;5075778;28;20107;-81
2020/12/06 06:17:40;;;;;;;23.07;12.70;;;3.90;84.50;;;;;;5076021;28;20047;-82
2020/12/06 06:20:06;;;;;;;22.13;13.43;;;4.00;84.60;;;;;;5093445;28;20036;-82
2020/12/06 06:22:39;;;;;;;22.10;12.80;;;4.00;84.40;;;;;;5093949;28;20036;-82
2020/12/06 06:25:06;;;;;;;20.47;12.33;;;4.10;84.10;;;;;;5093842;28;20455;-82
2020/12/06 06:27:35;;;;;;;21.53;12.50;;;4.10;83.80;;;;;;5094064;28;20099;-82
2020/12/06 06:30:10;;;;;;;21.67;13.10;;;4.00;84.00;;;;;;5093225;28;20024;-81
2020/12/06 06:32:37;;;;;;;21.93;12.43;;;4.00;84.40;;;;;;5075719;28;20074;-82
2020/12/06 06:35:04;;;;;;;21.47;12.30;;;4.00;84.40;;;;;;5094802;28;20020;-82
2020/12/06 06:37:32;;;;;;;27.17;13.13;;;4.10;84.40;;;;;;5075959;28;20026;-81
2020/12/06 06:40:09;;;;;;;22.40;13.00;;;4.10;84.40;;;;;;5093565;28;20476;-81
2020/12/06 06:42:36;;;;;;;25.93;13.43;;;4.10;84.50;;;;;;5076135;28;20024;-81
2020/12/06 06:45:04;;;;;;;24.27;13.50;;;4.10;84.40;;;;;;5078406;28;20024;-81
2020/12/06 06:47:29;;;;;;;21.00;13.57;;;4.10;84.20;;;;;;5097946;28;20046;-81
2020/12/06 06:49:57;;;;;;;24.33;13.47;;;4.10;84.40;;;;;;5079276;28;20024;-82
2020/12/06 06:52:24;;;;;;;22.13;13.43;;;4.10;84.40;;;;;;5097866;28;20021;-82
2020/12/06 06:54:52;;;;;;;25.43;14.37;;;4.10;84.20;;;;;;5098100;28;20349;-81
2020/12/06 06:57:19;;;;;;;24.73;14.23;;;4.20;84.40;;;;;;5097876;28;20024;-82
2020/12/06 06:59:50;;;;;;;23.03;13.80;;;4.20;84.70;;;;;;5097629;28;20016;-82
2020/12/06 07:02:39;;;;;;;26.33;15.10;;;4.10;84.50;;;;;;5098006;28;20037;-82
2020/12/06 07:05:20;;;;;;;26.77;14.43;;;4.10;84.60;;;;;;5097669;28;20035;-82
2020/12/06 07:07:50;;;;;;;26.00;15.70;;;4.20;84.70;;;;;;5099219;28;20024;-81
2020/12/06 07:10:17;;;;;;;26.17;14.87;;;4.10;84.60;;;;;;5080597;28;20028;-82
2020/12/06 07:12:49;;;;;;;29.27;14.87;;;4.20;84.70;;;;;;5098287;28;20016;-82
2020/12/06 07:15:16;;;;;;;25.97;15.30;;;4.10;84.80;;;;;;5078642;28;20024;-82
2020/12/06 07:17:42;;;;;;;28.87;15.83;;;4.20;84.90;;;;;;5097386;28;20028;-82
2020/12/06 07:20:11;;;;;;;28.73;16.30;;;4.10;84.70;;;;;;5096690;28;20384;-81
2020/12/06 07:22:37;;;;;;;27.07;15.27;;;4.10;85.00;;;;;;5097003;28;20103;-82
2020/12/06 07:25:04;;;;;;;28.87;16.00;;;4.10;85.20;;;;;;5096802;28;20028;-82
2020/12/06 07:27:31;;;;;;;24.87;14.57;;;4.10;85.20;;;;;;5096843;28;20471;-82
2020/12/06 07:29:56;;;;;;;26.23;15.03;;;4.10;84.90;;;;;;5096000;28;20076;-81
2020/12/06 07:32:22;;;;;;;25.57;15.97;;;4.10;85.10;;;;;;5096446;28;20126;-81
2020/12/06 07:34:49;;;;;;;26.53;15.90;;;4.10;85.30;;;;;;5096957;28;20020;-82
2020/12/06 07:37:15;;;;;;;25.20;14.33;;;4.10;85.70;;;;;;5096120;28;20071;-82
2020/12/06 07:39:45;;;;;;;28.77;16.00;;;4.10;85.50;;;;;;5096019;28;20410;-82
2020/12/06 07:42:17;;;;;;;27.80;15.30;;;4.10;85.30;;;;;;5096163;28;20476;-82
2020/12/06 07:44:47;;;;;;;31.00;16.40;;;4.10;85.70;;;;;;5077977;28;20028;-82
2020/12/06 07:47:13;;;;;;;27.63;16.00;;;4.10;85.80;;;;;;5077919;28;20020;-82
2020/12/06 07:50:01;;;;;;;29.83;17.27;;;4.10;85.50;;;;;;5095548;28;20426;-82
2020/12/06 07:52:35;;;;;;;31.83;17.07;;;4.10;85.80;;;;;;5096369;28;20016;-82
2020/12/06 07:55:04;;;;;;;32.17;16.80;;;4.10;85.70;;;;;;5095854;28;20543;-82
2020/12/06 07:57:38;;;;;;;29.23;16.48;;;4.10;85.60;;;;;;5095751;28;20077;-82
2020/12/06 08:00:12;;;;;;;28.70;16.60;;;4.10;85.70;;;;;;5095732;28;20369;-82
2020/12/06 08:02:45;;;;;;;30.33;17.40;;;4.10;85.70;;;;;;5095787;28;20457;-82
2020/12/06 08:05:18;;;;;;;33.37;18.03;;;4.10;85.80;;;;;;5095696;28;20031;-82
2020/12/06 08:07:47;;;;;;;34.00;18.10;;;4.20;85.70;;;;;;5096119;28;20038;-82
2020/12/06 08:10:18;;;;;;;31.85;18.13;;;4.10;86.00;;;;;;5077742;28;20024;-83
2020/12/06 08:12:46;;;;;;;32.57;18.03;;;4.10;86.20;;;;;;5096151;28;20020;-82
2020/12/06 08:15:12;;;;;;;30.40;17.60;;;4.20;86.00;;;;;;5077316;28;20023;-83
2020/12/06 08:17:42;;;;;;;28.80;16.90;;;4.10;86.20;;;;;;5096357;28;20024;-82
2020/12/06 08:20:12;;;;;;;31.47;17.50;;;4.20;85.90;;;;;;5095792;28;20051;-83
2020/12/06 08:23:04;;;;;;;32.28;17.80;;;4.20;85.90;;;;;;5095685;28;20039;-81
2020/12/06 08:25:34;;;;;;;29.77;16.73;;;4.20;85.80;;;;;;5093937;28;20168;-82
2020/12/06 08:28:02;;;;;;;31.57;18.03;;;4.20;85.70;;;;;;5095962;28;20103;-81
2020/12/06 08:30:30;;;;;;;32.90;18.43;;;4.20;85.70;;;;;;5076239;28;20024;-81
2020/12/06 08:33:03;;;;;;;33.97;19.50;;;4.20;85.80;;;;;;5095338;28;20028;-81
2020/12/06 08:35:43;;;;;;;31.20;17.57;;;4.20;85.80;;;;;;5095252;28;20024;-82
2020/12/06 08:38:24;;;;;;;33.13;18.70;;;4.30;85.90;;;;;;5077630;28;20051;-82
2020/12/06 08:41:07;;;;;;;30.83;17.50;;;4.30;85.70;;;;;;5094725;28;20036;-82
2020/12/06 08:44:02;;;;;;;30.47;16.93;;;4.30;85.70;;;;;;5095612;28;20038;-82
2020/12/06 08:46:29;;;;;;;33.57;17.13;;;4.30;85.70;;;;;;5077926;28;20036;-82
2020/12/06 08:48:57;;;;;;;31.60;17.13;;;4.30;85.80;;;;;;5094656;28;20089;-82
2020/12/06 08:51:23;;;;;;;31.93;18.07;;;4.30;85.80;;;;;;5094991;28;20016;-82
2020/12/06 08:53:49;;;;;;;34.23;18.53;;;4.40;85.60;;;;;;5076737;28;20084;-82
2020/12/06 08:56:27;;;;;;;32.47;17.07;;;4.40;85.70;;;;;;5095704;28;20047;-82
2020/12/06 08:58:53;;;;;;;32.40;17.90;;;4.40;85.90;;;;;;5095173;28;20099;-82
2020/12/06 09:01:19;;;;;;;33.37;18.20;;;4.40;85.60;;;;;;5076779;28;20448;-82
2020/12/06 09:03:45;;;;;;;30.93;18.33;;;4.40;85.50;;;;;;5095335;28;20025;-81
2020/12/06 09:06:18;;;;;;;30.57;17.70;;;4.40;85.70;;;;;;5094899;28;20032;-82
2020/12/06 09:08:44;;;;;;;30.60;18.00;;;4.40;85.70;;;;;;5095202;28;20056;-82
2020/12/06 09:11:28;;;;;;;35.57;18.37;;;4.40;85.80;;;;;;5076298;28;20182;-82
2020/12/06 09:13:53;;;;;;;33.13;18.40;;;4.50;85.80;;;;;;5095226;28;20059;-82
2020/12/06 09:16:19;;;;;;;31.83;18.30;;;4.50;85.90;;;;;;5095346;28;20036;-82
2020/12/06 09:18:44;;;;;;;29.90;17.03;;;4.50;85.90;;;;;;5077094;28;20030;-81
2020/12/06 09:21:11;;;;;;;31.43;17.90;;;4.40;86.20;;;;;;5076258;28;20035;-82
2020/12/06 09:23:36;;;;;;;29.77;17.33;;;4.40;86.10;;;;;;5094603;28;20023;-82
2020/12/06 09:26:04;;;;;;;32.33;18.23;;;4.50;86.20;;;;;;5094908;28;20028;-82
2020/12/06 09:28:30;;;;;;;32.00;18.00;;;4.50;86.00;;;;;;5078293;28;20046;-82
2020/12/06 09:30:56;;;;;;;30.53;17.77;;;4.50;86.10;;;;;;5082772;28;20049;-82
2020/12/06 09:33:22;;;;;;;30.60;17.70;;;4.50;86.20;;;;;;5103238;28;20059;-82
2020/12/06 09:35:48;;;;;;;31.77;17.70;;;4.60;86.00;;;;;;5098413;28;20527;-82
2020/12/06 09:38:14;;;;;;;31.50;17.87;;;4.60;86.00;;;;;;5076666;28;20017;-82
2020/12/06 09:40:40;;;;;;;33.03;18.63;;;4.60;85.70;;;;;;5094390;28;20016;-82
2020/12/06 09:43:05;;;;;;;32.00;17.83;;;4.70;85.60;;;;;;5094229;28;20020;-82
2020/12/06 09:45:31;;;;;;;31.67;18.07;;;4.70;85.10;;;;;;5094494;28;20061;-81
2020/12/06 09:47:57;;;;;;;32.27;18.07;;;4.70;85.80;;;;;;5076258;28;20112;-82
2020/12/06 09:50:22;;;;;;;29.83;17.03;;;4.70;85.80;;;;;;5094703;28;20077;-81
2020/12/06 09:52:48;;;;;;;29.63;17.53;;;4.70;85.80;;;;;;5095089;28;20064;-82
2020/12/06 09:55:13;;;;;;;28.80;17.87;;;4.70;85.80;;;;;;5095129;28;20059;-82
2020/12/06 09:57:39;;;;;;;31.77;18.00;;;4.80;86.00;;;;;;5094130;28;20047;-81
2020/12/06 10:00:06;;;;;;;28.30;17.30;;;4.80;86.30;;;;;;5093644;28;20055;-82
2020/12/06 10:02:31;;;;;;;30.60;16.67;;;4.80;86.20;;;;;;5094732;28;20059;-81
2020/12/06 10:04:57;;;;;;;29.53;16.90;;;4.90;86.20;;;;;;5094252;28;20058;-82
2020/12/06 10:07:24;;;;;;;34.13;18.70;;;4.90;86.30;;;;;;5094415;28;20089;-82
2020/12/06 10:09:50;;;;;;;29.87;17.73;;;4.90;86.50;;;;;;5093961;28;20372;-82
2020/12/06 10:12:16;;;;;;;30.30;17.70;;;5.00;86.20;;;;;;5094561;28;20058;-82
2020/12/06 10:14:42;;;;;;;29.67;17.57;;;5.00;86.40;;;;;;5094135;28;20020;-82
2020/12/06 10:17:07;;;;;;;27.40;16.83;;;5.00;86.40;;;;;;5094121;28;20369;-82
2020/12/06 10:19:33;;;;;;;32.20;17.93;;;5.00;86.30;;;;;;5095684;28;20295;-82
2020/12/06 10:21:59;;;;;;;28.47;17.17;;;5.00;86.20;;;;;;5098188;28;20031;-82
2020/12/06 10:24:24;;;;;;;30.57;18.03;;;5.00;86.30;;;;;;5098210;28;20048;-81
2020/12/06 10:26:52;;;;;;;31.47;17.73;;;5.00;86.40;;;;;;5098084;28;20362;-81
2020/12/06 10:29:17;;;;;;;29.53;16.70;;;5.00;86.40;;;;;;5097474;28;20012;-82
2020/12/06 10:31:43;;;;;;;31.40;17.57;;;5.00;86.40;;;;;;5079363;28;20028;-81
2020/12/06 10:34:09;;;;;;;30.10;18.57;;;5.00;86.30;;;;;;5097904;28;20016;-82
2020/12/06 10:36:34;;;;;;;30.93;17.50;;;5.00;86.60;;;;;;5097745;28;20546;-82
2020/12/06 10:39:00;;;;;;;31.37;17.93;;;5.00;86.40;;;;;;5079683;28;20418;-82
2020/12/06 10:41:25;;;;;;;30.43;18.27;;;5.00;86.50;;;;;;5098091;28;20043;-82
2020/12/06 10:43:51;;;;;;;32.83;17.93;;;5.00;86.50;;;;;;5098087;28;20028;-82
2020/12/06 10:46:17;;;;;;;31.63;18.27;;;5.00;86.40;;;;;;5079720;28;20111;-82
2020/12/06 10:48:42;;;;;;;31.10;18.03;;;5.00;86.50;;;;;;5098255;28;20023;-82
2020/12/06 10:51:08;;;;;;;30.53;17.60;;;5.00;86.30;;;;;;5097011;28;20019;-82
2020/12/06 10:53:33;;;;;;;29.13;17.50;;;5.00;86.70;;;;;;5079171;28;20472;-82
2020/12/06 10:56:01;;;;;;;30.90;17.90;;;5.00;86.90;;;;;;5097050;28;20039;-82
2020/12/06 10:58:27;;;;;;;30.73;17.47;;;5.00;87.10;;;;;;5096869;28;20032;-82
2020/12/06 11:00:52;;;;;;;32.37;17.57;;;5.00;87.40;;;;;;5077930;28;20024;-82
2020/12/06 11:03:18;;;;;;;31.87;17.40;;;5.00;87.30;;;;;;5096898;28;20031;-82
2020/12/06 11:05:44;;;;;;;29.17;17.93;;;5.00;86.80;;;;;;5078817;28;20070;-82
2020/12/06 11:08:09;;;;;;;29.93;17.47;;;5.00;87.10;;;;;;5079007;28;20026;-82
2020/12/06 11:10:35;;;;;;;31.83;17.60;;;5.00;87.00;;;;;;5096579;28;20023;-82
2020/12/06 11:13:00;;;;;;;30.50;17.03;;;5.10;87.20;;;;;;5078665;28;20119;-82
2020/12/06 11:15:26;;;;;;;30.70;16.37;;;5.10;87.20;;;;;;5078643;28;20023;-82
2020/12/06 11:17:51;;;;;;;29.83;17.03;;;5.10;87.50;;;;;;5096897;28;20472;-82
2020/12/06 11:20:17;;;;;;;30.47;17.60;;;5.10;87.80;;;;;;5096143;28;20051;-81
2020/12/06 11:22:43;;;;;;;28.00;16.23;;;5.10;87.50;;;;;;5078071;28;20035;-82
2020/12/06 11:25:08;;;;;;;28.97;16.67;;;5.10;87.50;;;;;;5097028;28;20032;-83
2020/12/06 11:27:34;;;;;;;31.33;17.23;;;5.10;87.50;;;;;;5097211;28;20065;-83
2020/12/06 11:29:59;;;;;;;27.37;16.00;;;5.10;88.30;;;;;;5095899;28;20358;-82
2020/12/06 11:32:26;;;;;;;27.10;16.80;;;5.20;87.60;;;;;;5097131;28;20034;-82
2020/12/06 11:34:51;;;;;;;31.17;17.53;;;5.10;87.40;;;;;;5096334;28;20492;-82
2020/12/06 11:37:17;;;;;;;29.27;17.77;;;5.20;87.60;;;;;;5078453;28;20077;-83
2020/12/06 11:39:43;;;;;;;32.70;18.43;;;5.20;87.90;;;;;;5077476;28;20072;-82
2020/12/06 11:42:08;;;;;;;29.73;16.57;;;5.10;88.20;;;;;;5096176;28;20031;-82
2020/12/06 11:44:34;;;;;;;29.90;17.50;;;5.20;88.20;;;;;;5078216;28;20077;-82
2020/12/06 11:46:59;;;;;;;31.47;17.60;;;5.20;88.30;;;;;;5077866;28;20534;-82
2020/12/06 11:49:25;;;;;;;32.33;17.30;;;5.10;88.40;;;;;;5095679;28;20056;-82
2020/12/06 11:51:54;;;;;;;30.17;17.23;;;5.10;88.60;;;;;;5096167;28;20396;-82
2020/12/06 11:54:20;;;;;;;32.00;17.25;;;5.00;88.60;;;;;;5096366;28;20020;-82
2020/12/06 11:56:48;;;;;;;29.93;17.13;;;5.00;88.70;;;;;;5077734;28;20081;-81
2020/12/06 11:59:15;;;;;;;32.03;18.40;;;5.00;89.30;;;;;;5095302;28;20031;-81
2020/12/06 12:01:41;;;;;;;29.07;16.57;;;5.00;89.10;;;;;;5096384;28;20512;-82
2020/12/06 12:04:06;;;;;;;28.13;16.57;;;5.10;89.00;;;;;;5096509;28;20028;-82
2020/12/06 12:06:32;;;;;;;28.23;16.97;;;5.10;89.30;;;;;;5096297;28;20035;-82
2020/12/06 12:08:57;;;;;;;27.07;15.90;;;5.10;89.20;;;;;;5095793;28;20369;-82
2020/12/06 12:11:23;;;;;;;31.00;16.87;;;5.10;89.00;;;;;;5078100;28;20024;-82
2020/12/06 12:13:48;;;;;;;32.73;18.50;;;5.10;89.60;;;;;;5096119;28;20020;-82
2020/12/06 12:16:14;;;;;;;33.90;18.97;;;5.00;89.40;;;;;;5096342;28;20059;-82
2020/12/06 12:18:40;;;;;;;35.23;18.83;;;5.00;89.80;;;;;;5095930;28;20028;-82
2020/12/06 12:21:06;;;;;;;34.53;19.10;;;5.00;89.70;;;;;;5095538;28;20032;-82
2020/12/06 12:23:31;;;;;;;34.60;19.43;;;4.90;90.00;;;;;;5096284;28;20036;-82
2020/12/06 12:25:57;;;;;;;41.63;22.90;;;5.00;90.10;;;;;;5095589;28;20103;-81
2020/12/06 12:28:23;;;;;;;34.93;19.23;;;5.00;90.10;;;;;;5096244;28;20025;-82
2020/12/06 12:30:48;;;;;;;33.50;19.53;;;4.90;90.20;;;;;;5095687;28;20020;-82
2020/12/06 12:33:14;;;;;;;33.03;18.40;;;5.00;90.30;;;;;;5095819;28;20420;-81
2020/12/06 12:35:40;;;;;;;37.33;19.70;;;5.00;90.50;;;;;;5078214;28;20025;-82
2020/12/06 12:38:05;;;;;;;34.03;18.83;;;5.00;90.40;;;;;;5096095;28;20028;-82